Main page
METAR-TAF:

METAR-TAF

Airports :

Mattala Rajapaksa International Airport

Hambantota, Sri Lanka

latitude: 06-17-20N, longitude: 81-07-25E, elevation: 48 m

Current weather observation

The report was made 1 hour and 7 minutes ago, at 06:10 UTC
Wind 14 kt from the West/Southwest, varying between Southwest and West/Northwest
Temperature 34°C
Humidity 56%
Pressure 1010 hPa
Visibility 10 km or more
Few clouds at a height of 1800 ft

METAR: VCRI 300610Z 24014KT 220V290 9999 FEW018 34/24 Q1010 NOSIG

Time: 12:47 (07:17 UTC)

Forecast

The report was made 14 hours and 17 minutes ago, at 17:00 UTC
Forecast valid from 29 at 18 UTC to 30 at 24 UTC
Wind 10 kt from the West
Visibility 10 km or more
Few clouds at a height of 1800 ft
Becoming
from 30 at 03 UTC to 30 at 05 UTC
Wind 16 kt from the West with gusts up to 26 kt
Becoming
from 30 at 14 UTC to 30 at 16 UTC
Wind 8 kt from the West

TAF: VCRI 291700Z 2918/3024 26010KT 9999 FEW018 TX34/3007Z TN25/3000Z BECMG 3003/3005 27016G26KT BECMG 3014/3016 26008KT

Weather observations and forecasts of more than 4000 airports (METAR and TAF reports).

The available stations are represented by yellow and red dots on the map.

Hover mouse over dot to see the name of the station.

Then click to see weather observations and forecasts.

To change the map : click on the green buttons with a black cross to zoom in, on the green button with a dash to zoom out, or on the green arrows for adjacent maps.


METAR-TAF: